sensor_id;sensor_type;location;lat;lon;timestamp;P1;durP1;ratioP1;P2;durP2;ratioP2
44810;SDS011;30526;52.184;4.476;2022-07-01T00:01:21;19.38;;;9.85;;
44810;SDS011;30526;52.184;4.476;2022-07-01T00:03:46;20.05;;;8.90;;
44810;SDS011;30526;52.184;4.476;2022-07-01T00:06:16;20.00;;;8.63;;
44810;SDS011;30526;52.184;4.476;2022-07-01T00:08:45;15.40;;;8.30;;
44810;SDS011;30526;52.184;4.476;2022-07-01T00:11:11;20.65;;;9.88;;
44810;SDS011;30526;52.184;4.476;2022-07-01T00:13:37;16.52;;;9.85;;
44810;SDS011;30526;52.184;4.476;2022-07-01T00:16:03;17.65;;;9.35;;
44810;SDS011;30526;52.184;4.476;2022-07-01T00:18:28;17.88;;;10.38;;
44810;SDS011;30526;52.184;4.476;2022-07-01T00:20:54;17.63;;;10.30;;
44810;SDS011;30526;52.184;4.476;2022-07-01T00:23:20;18.70;;;10.70;;
44810;SDS011;30526;52.184;4.476;2022-07-01T00:25:46;18.88;;;11.15;;
44810;SDS011;30526;52.184;4.476;2022-07-01T00:28:12;22.58;;;11.82;;
44810;SDS011;30526;52.184;4.476;2022-07-01T00:30:38;24.40;;;12.30;;
44810;SDS011;30526;52.184;4.476;2022-07-01T00:33:04;24.38;;;12.60;;
44810;SDS011;30526;52.184;4.476;2022-07-01T00:35:29;22.48;;;11.88;;
44810;SDS011;30526;52.184;4.476;2022-07-01T00:37:56;25.67;;;11.73;;
44810;SDS011;30526;52.184;4.476;2022-07-01T00:40:23;22.23;;;11.70;;
44810;SDS011;30526;52.184;4.476;2022-07-01T00:42:49;28.10;;;14.37;;
44810;SDS011;30526;52.184;4.476;2022-07-01T00:45:14;26.58;;;13.43;;
44810;SDS011;30526;52.184;4.476;2022-07-01T00:47:40;23.25;;;12.18;;
44810;SDS011;30526;52.184;4.476;2022-07-01T00:50:08;19.92;;;10.55;;
44810;SDS011;30526;52.184;4.476;2022-07-01T00:52:36;22.20;;;13.02;;
44810;SDS011;30526;52.184;4.476;2022-07-01T00:55:03;24.83;;;14.73;;
44810;SDS011;30526;52.184;4.476;2022-07-01T00:57:31;24.67;;;13.65;;
44810;SDS011;30526;52.184;4.476;2022-07-01T00:59:58;16.90;;;9.88;;
44810;SDS011;30526;52.184;4.476;2022-07-01T01:02:24;26.40;;;13.30;;
44810;SDS011;30526;52.184;4.476;2022-07-01T01:04:49;28.85;;;13.65;;
44810;SDS011;30526;52.184;4.476;2022-07-01T01:07:15;27.98;;;13.80;;
44810;SDS011;30526;52.184;4.476;2022-07-01T01:09:41;23.83;;;14.63;;
44810;SDS011;30526;52.184;4.476;2022-07-01T01:12:07;30.05;;;13.95;;
44810;SDS011;30526;52.184;4.476;2022-07-01T01:14:46;25.48;;;12.75;;
44810;SDS011;30526;52.184;4.476;2022-07-01T01:17:14;19.67;;;9.50;;
44810;SDS011;30526;52.184;4.476;2022-07-01T01:19:41;29.63;;;13.18;;
44810;SDS011;30526;52.184;4.476;2022-07-01T01:22:07;18.88;;;9.68;;
44810;SDS011;30526;52.184;4.476;2022-07-01T01:24:34;25.03;;;10.17;;
44810;SDS011;30526;52.184;4.476;2022-07-01T01:27:05;25.00;;;13.63;;
44810;SDS011;30526;52.184;4.476;2022-07-01T01:29:32;26.70;;;12.57;;
44810;SDS011;30526;52.184;4.476;2022-07-01T01:31:58;24.13;;;13.25;;
44810;SDS011;30526;52.184;4.476;2022-07-01T01:34:23;26.00;;;12.00;;
44810;SDS011;30526;52.184;4.476;2022-07-01T01:36:49;25.88;;;13.02;;
44810;SDS011;30526;52.184;4.476;2022-07-01T01:39:15;23.35;;;12.23;;
44810;SDS011;30526;52.184;4.476;2022-07-01T01:41:41;26.60;;;12.57;;
44810;SDS011;30526;52.184;4.476;2022-07-01T01:44:07;27.63;;;12.48;;
44810;SDS011;30526;52.184;4.476;2022-07-01T01:46:32;31.15;;;13.10;;
44810;SDS011;30526;52.184;4.476;2022-07-01T01:48:59;31.30;;;13.23;;
44810;SDS011;30526;52.184;4.476;2022-07-01T01:51:25;26.15;;;12.57;;
44810;SDS011;30526;52.184;4.476;2022-07-01T01:53:51;26.77;;;11.32;;
44810;SDS011;30526;52.184;4.476;2022-07-01T01:56:17;24.67;;;11.95;;
44810;SDS011;30526;52.184;4.476;2022-07-01T01:58:43;29.40;;;12.35;;
44810;SDS011;30526;52.184;4.476;2022-07-01T02:01:10;20.92;;;11.63;;
44810;SDS011;30526;52.184;4.476;2022-07-01T02:03:36;21.40;;;11.98;;
44810;SDS011;30526;52.184;4.476;2022-07-01T02:06:03;16.05;;;8.82;;
44810;SDS011;30526;52.184;4.476;2022-07-01T02:08:30;22.27;;;11.27;;
44810;SDS011;30526;52.184;4.476;2022-07-01T02:10:56;16.10;;;8.13;;
44810;SDS011;30526;52.184;4.476;2022-07-01T02:13:22;28.95;;;11.30;;
44810;SDS011;30526;52.184;4.476;2022-07-01T02:15:48;28.20;;;10.88;;
44810;SDS011;30526;52.184;4.476;2022-07-01T02:18:14;22.02;;;10.75;;
44810;SDS011;30526;52.184;4.476;2022-07-01T02:20:40;22.08;;;9.70;;
44810;SDS011;30526;52.184;4.476;2022-07-01T02:23:06;25.55;;;11.23;;
44810;SDS011;30526;52.184;4.476;2022-07-01T02:25:32;19.25;;;11.00;;
44810;SDS011;30526;52.184;4.476;2022-07-01T02:27:58;19.27;;;10.18;;
44810;SDS011;30526;52.184;4.476;2022-07-01T02:30:23;19.55;;;8.68;;
44810;SDS011;30526;52.184;4.476;2022-07-01T02:32:49;18.92;;;9.10;;
44810;SDS011;30526;52.184;4.476;2022-07-01T02:35:15;23.95;;;10.73;;
44810;SDS011;30526;52.184;4.476;2022-07-01T02:37:41;17.73;;;9.13;;
44810;SDS011;30526;52.184;4.476;2022-07-01T02:40:07;21.33;;;9.30;;
44810;SDS011;30526;52.184;4.476;2022-07-01T02:42:34;12.13;;;5.32;;
44810;SDS011;30526;52.184;4.476;2022-07-01T02:45:00;14.80;;;8.15;;
44810;SDS011;30526;52.184;4.476;2022-07-01T02:47:34;13.70;;;5.97;;
44810;SDS011;30526;52.184;4.476;2022-07-01T02:50:04;17.67;;;8.82;;
44810;SDS011;30526;52.184;4.476;2022-07-01T02:52:31;16.02;;;7.70;;
44810;SDS011;30526;52.184;4.476;2022-07-01T02:57:25;17.30;;;8.80;;
44810;SDS011;30526;52.184;4.476;2022-07-01T02:59:50;20.80;;;8.88;;
44810;SDS011;30526;52.184;4.476;2022-07-01T03:02:16;18.38;;;7.78;;
44810;SDS011;30526;52.184;4.476;2022-07-01T03:04:43;18.70;;;8.20;;
44810;SDS011;30526;52.184;4.476;2022-07-01T03:07:09;21.13;;;8.60;;
44810;SDS011;30526;52.184;4.476;2022-07-01T03:09:34;23.08;;;8.10;;
44810;SDS011;30526;52.184;4.476;2022-07-01T03:12:00;19.73;;;7.70;;
44810;SDS011;30526;52.184;4.476;2022-07-01T03:14:46;19.20;;;7.82;;
44810;SDS011;30526;52.184;4.476;2022-07-01T03:17:11;15.55;;;7.88;;
44810;SDS011;30526;52.184;4.476;2022-07-01T03:19:37;18.00;;;7.45;;
44810;SDS011;30526;52.184;4.476;2022-07-01T03:22:02;25.23;;;8.13;;
44810;SDS011;30526;52.184;4.476;2022-07-01T03:24:28;14.50;;;7.32;;
44810;SDS011;30526;52.184;4.476;2022-07-01T03:26:53;11.23;;;5.68;;
44810;SDS011;30526;52.184;4.476;2022-07-01T03:29:19;15.27;;;6.80;;
44810;SDS011;30526;52.184;4.476;2022-07-01T03:31:44;16.08;;;6.65;;
44810;SDS011;30526;52.184;4.476;2022-07-01T03:34:10;17.30;;;7.38;;
44810;SDS011;30526;52.184;4.476;2022-07-01T03:36:36;13.60;;;6.72;;
44810;SDS011;30526;52.184;4.476;2022-07-01T03:39:02;18.90;;;7.15;;
44810;SDS011;30526;52.184;4.476;2022-07-01T03:41:29;15.15;;;6.88;;
44810;SDS011;30526;52.184;4.476;2022-07-01T03:46:27;16.55;;;6.63;;
44810;SDS011;30526;52.184;4.476;2022-07-01T03:48:56;22.20;;;7.15;;
44810;SDS011;30526;52.184;4.476;2022-07-01T03:51:22;14.57;;;5.75;;
44810;SDS011;30526;52.184;4.476;2022-07-01T03:53:48;13.18;;;6.28;;
44810;SDS011;30526;52.184;4.476;2022-07-01T03:56:32;9.68;;;6.13;;
44810;SDS011;30526;52.184;4.476;2022-07-01T03:58:57;14.25;;;6.30;;
44810;SDS011;30526;52.184;4.476;2022-07-01T04:01:23;15.85;;;6.30;;
44810;SDS011;30526;52.184;4.476;2022-07-01T04:03:49;13.18;;;6.22;;
44810;SDS011;30526;52.184;4.476;2022-07-01T04:06:15;10.02;;;6.45;;
44810;SDS011;30526;52.184;4.476;2022-07-01T04:08:41;17.33;;;6.90;;
44810;SDS011;30526;52.184;4.476;2022-07-01T04:11:07;13.55;;;6.80;;
44810;SDS011;30526;52.184;4.476;2022-07-01T04:13:34;16.58;;;6.53;;
44810;SDS011;30526;52.184;4.476;2022-07-01T04:16:02;14.00;;;7.15;;
44810;SDS011;30526;52.184;4.476;2022-07-01T04:18:28;18.38;;;7.63;;
44810;SDS011;30526;52.184;4.476;2022-07-01T04:20:54;18.85;;;6.57;;
44810;SDS011;30526;52.184;4.476;2022-07-01T04:23:39;14.15;;;7.00;;
44810;SDS011;30526;52.184;4.476;2022-07-01T04:26:05;20.20;;;7.82;;
44810;SDS011;30526;52.184;4.476;2022-07-01T04:28:31;19.40;;;7.88;;
44810;SDS011;30526;52.184;4.476;2022-07-01T04:30:57;18.20;;;8.48;;
44810;SDS011;30526;52.184;4.476;2022-07-01T04:33:23;15.55;;;8.00;;
44810;SDS011;30526;52.184;4.476;2022-07-01T04:35:49;19.60;;;7.47;;
44810;SDS011;30526;52.184;4.476;2022-07-01T04:38:15;13.73;;;8.10;;
44810;SDS011;30526;52.184;4.476;2022-07-01T04:40:41;18.88;;;7.35;;
44810;SDS011;30526;52.184;4.476;2022-07-01T04:43:26;16.80;;;7.05;;
44810;SDS011;30526;52.184;4.476;2022-07-01T04:45:53;17.20;;;6.83;;
44810;SDS011;30526;52.184;4.476;2022-07-01T04:48:20;11.57;;;7.35;;
44810;SDS011;30526;52.184;4.476;2022-07-01T04:50:46;15.05;;;7.22;;
44810;SDS011;30526;52.184;4.476;2022-07-01T04:53:15;21.08;;;7.13;;
44810;SDS011;30526;52.184;4.476;2022-07-01T04:55:41;15.02;;;7.00;;
44810;SDS011;30526;52.184;4.476;2022-07-01T04:58:10;17.70;;;7.93;;
44810;SDS011;30526;52.184;4.476;2022-07-01T05:00:35;14.23;;;7.68;;
44810;SDS011;30526;52.184;4.476;2022-07-01T05:03:01;19.63;;;8.27;;
44810;SDS011;30526;52.184;4.476;2022-07-01T05:05:27;16.52;;;8.50;;
44810;SDS011;30526;52.184;4.476;2022-07-01T05:07:53;17.75;;;7.95;;
44810;SDS011;30526;52.184;4.476;2022-07-01T05:10:19;17.60;;;7.43;;
44810;SDS011;30526;52.184;4.476;2022-07-01T05:12:45;19.02;;;7.70;;
44810;SDS011;30526;52.184;4.476;2022-07-01T05:15:11;16.60;;;8.27;;
44810;SDS011;30526;52.184;4.476;2022-07-01T05:17:37;17.02;;;8.23;;
44810;SDS011;30526;52.184;4.476;2022-07-01T05:20:22;11.38;;;6.93;;
44810;SDS011;30526;52.184;4.476;2022-07-01T05:23:06;20.67;;;8.00;;
44810;SDS011;30526;52.184;4.476;2022-07-01T05:25:32;20.53;;;7.47;;
44810;SDS011;30526;52.184;4.476;2022-07-01T05:27:58;18.30;;;7.28;;
44810;SDS011;30526;52.184;4.476;2022-07-01T05:30:24;19.42;;;8.00;;
44810;SDS011;30526;52.184;4.476;2022-07-01T05:32:50;13.45;;;6.25;;
44810;SDS011;30526;52.184;4.476;2022-07-01T05:35:16;13.55;;;6.50;;
44810;SDS011;30526;52.184;4.476;2022-07-01T05:37:42;13.10;;;7.18;;
44810;SDS011;30526;52.184;4.476;2022-07-01T05:40:08;20.58;;;7.65;;
44810;SDS011;30526;52.184;4.476;2022-07-01T05:42:35;20.35;;;7.55;;
44810;SDS011;30526;52.184;4.476;2022-07-01T05:45:01;16.60;;;7.20;;
44810;SDS011;30526;52.184;4.476;2022-07-01T05:47:27;13.13;;;6.80;;
44810;SDS011;30526;52.184;4.476;2022-07-01T05:49:53;19.65;;;6.05;;
44810;SDS011;30526;52.184;4.476;2022-07-01T05:52:19;11.48;;;6.22;;
44810;SDS011;30526;52.184;4.476;2022-07-01T05:54:44;14.65;;;6.43;;
44810;SDS011;30526;52.184;4.476;2022-07-01T05:57:11;14.93;;;6.35;;
44810;SDS011;30526;52.184;4.476;2022-07-01T05:59:37;11.93;;;6.68;;
44810;SDS011;30526;52.184;4.476;2022-07-01T06:02:03;11.85;;;5.40;;
44810;SDS011;30526;52.184;4.476;2022-07-01T06:04:29;17.60;;;6.38;;
44810;SDS011;30526;52.184;4.476;2022-07-01T06:06:55;18.80;;;6.18;;
44810;SDS011;30526;52.184;4.476;2022-07-01T06:09:21;9.88;;;4.72;;
44810;SDS011;30526;52.184;4.476;2022-07-01T06:11:47;16.17;;;5.30;;
44810;SDS011;30526;52.184;4.476;2022-07-01T06:14:13;13.57;;;4.93;;
44810;SDS011;30526;52.184;4.476;2022-07-01T06:16:39;15.57;;;5.13;;
44810;SDS011;30526;52.184;4.476;2022-07-01T06:19:05;11.40;;;4.60;;
44810;SDS011;30526;52.184;4.476;2022-07-01T06:21:32;9.73;;;4.83;;
44810;SDS011;30526;52.184;4.476;2022-07-01T06:23:58;15.60;;;4.50;;
44810;SDS011;30526;52.184;4.476;2022-07-01T06:26:24;13.30;;;4.07;;
44810;SDS011;30526;52.184;4.476;2022-07-01T06:28:50;13.02;;;4.68;;
44810;SDS011;30526;52.184;4.476;2022-07-01T06:31:16;18.40;;;4.97;;
44810;SDS011;30526;52.184;4.476;2022-07-01T06:33:42;15.48;;;4.68;;
44810;SDS011;30526;52.184;4.476;2022-07-01T06:36:08;13.20;;;4.63;;
44810;SDS011;30526;52.184;4.476;2022-07-01T06:38:34;7.55;;;4.55;;
44810;SDS011;30526;52.184;4.476;2022-07-01T06:41:00;8.48;;;4.45;;
44810;SDS011;30526;52.184;4.476;2022-07-01T06:43:44;17.70;;;4.82;;
44810;SDS011;30526;52.184;4.476;2022-07-01T06:46:10;10.65;;;4.07;;
44810;SDS011;30526;52.184;4.476;2022-07-01T06:48:36;10.98;;;4.30;;
44810;SDS011;30526;52.184;4.476;2022-07-01T06:51:03;8.88;;;3.75;;
44810;SDS011;30526;52.184;4.476;2022-07-01T06:53:29;11.05;;;3.63;;
44810;SDS011;30526;52.184;4.476;2022-07-01T06:55:56;9.63;;;3.50;;
44810;SDS011;30526;52.184;4.476;2022-07-01T06:58:22;6.95;;;3.00;;
44810;SDS011;30526;52.184;4.476;2022-07-01T07:00:48;8.65;;;4.13;;
44810;SDS011;30526;52.184;4.476;2022-07-01T07:03:14;7.18;;;3.30;;
44810;SDS011;30526;52.184;4.476;2022-07-01T07:05:40;7.03;;;3.30;;
44810;SDS011;30526;52.184;4.476;2022-07-01T07:08:06;11.15;;;2.83;;
44810;SDS011;30526;52.184;4.476;2022-07-01T07:10:32;5.07;;;2.90;;
44810;SDS011;30526;52.184;4.476;2022-07-01T07:12:58;8.35;;;2.83;;
44810;SDS011;30526;52.184;4.476;2022-07-01T07:15:24;9.73;;;2.67;;
44810;SDS011;30526;52.184;4.476;2022-07-01T07:17:50;4.53;;;2.00;;
44810;SDS011;30526;52.184;4.476;2022-07-01T07:20:16;3.90;;;1.95;;
44810;SDS011;30526;52.184;4.476;2022-07-01T07:22:42;6.47;;;1.83;;
44810;SDS011;30526;52.184;4.476;2022-07-01T07:25:08;6.70;;;2.15;;
44810;SDS011;30526;52.184;4.476;2022-07-01T07:27:34;14.07;;;1.95;;
44810;SDS011;30526;52.184;4.476;2022-07-01T07:30:00;5.75;;;1.58;;
44810;SDS011;30526;52.184;4.476;2022-07-01T07:32:28;5.28;;;1.20;;
44810;SDS011;30526;52.184;4.476;2022-07-01T07:34:54;6.68;;;1.42;;
44810;SDS011;30526;52.184;4.476;2022-07-01T07:37:20;10.55;;;1.33;;
44810;SDS011;30526;52.184;4.476;2022-07-01T07:39:46;3.78;;;1.35;;
44810;SDS011;30526;52.184;4.476;2022-07-01T07:42:12;7.07;;;1.67;;
44810;SDS011;30526;52.184;4.476;2022-07-01T07:44:38;5.18;;;1.67;;
44810;SDS011;30526;52.184;4.476;2022-07-01T07:47:04;5.32;;;1.60;;
44810;SDS011;30526;52.184;4.476;2022-07-01T07:49:30;4.97;;;1.75;;
44810;SDS011;30526;52.184;4.476;2022-07-01T07:51:56;6.72;;;1.50;;
44810;SDS011;30526;52.184;4.476;2022-07-01T07:54:22;4.70;;;1.60;;
44810;SDS011;30526;52.184;4.476;2022-07-01T07:56:48;7.40;;;1.88;;
44810;SDS011;30526;52.184;4.476;2022-07-01T07:59:14;6.82;;;1.58;;
44810;SDS011;30526;52.184;4.476;2022-07-01T08:01:40;4.97;;;1.88;;
44810;SDS011;30526;52.184;4.476;2022-07-01T08:04:06;3.55;;;1.23;;
44810;SDS011;30526;52.184;4.476;2022-07-01T08:06:32;4.78;;;1.20;;
44810;SDS011;30526;52.184;4.476;2022-07-01T08:08:58;3.00;;;1.15;;
44810;SDS011;30526;52.184;4.476;2022-07-01T08:11:24;4.18;;;1.20;;
44810;SDS011;30526;52.184;4.476;2022-07-01T08:13:50;1.90;;;0.75;;
44810;SDS011;30526;52.184;4.476;2022-07-01T08:16:16;6.38;;;1.13;;
44810;SDS011;30526;52.184;4.476;2022-07-01T08:18:42;4.30;;;1.08;;
44810;SDS011;30526;52.184;4.476;2022-07-01T08:21:08;5.20;;;1.33;;
44810;SDS011;30526;52.184;4.476;2022-07-01T08:23:33;4.47;;;1.08;;
44810;SDS011;30526;52.184;4.476;2022-07-01T08:26:00;6.50;;;1.27;;
44810;SDS011;30526;52.184;4.476;2022-07-01T08:28:26;5.32;;;1.35;;
44810;SDS011;30526;52.184;4.476;2022-07-01T08:30:52;6.30;;;1.40;;
44810;SDS011;30526;52.184;4.476;2022-07-01T08:33:18;5.35;;;1.65;;
44810;SDS011;30526;52.184;4.476;2022-07-01T08:35:44;4.70;;;1.40;;
44810;SDS011;30526;52.184;4.476;2022-07-01T08:38:10;5.70;;;1.55;;
44810;SDS011;30526;52.184;4.476;2022-07-01T08:40:36;6.88;;;1.63;;
44810;SDS011;30526;52.184;4.476;2022-07-01T08:43:04;7.07;;;1.40;;
44810;SDS011;30526;52.184;4.476;2022-07-01T08:47:56;7.40;;;1.83;;
44810;SDS011;30526;52.184;4.476;2022-07-01T08:50:26;8.27;;;1.20;;
44810;SDS011;30526;52.184;4.476;2022-07-01T08:52:52;7.88;;;1.50;;
44810;SDS011;30526;52.184;4.476;2022-07-01T08:55:23;8.82;;;1.10;;
44810;SDS011;30526;52.184;4.476;2022-07-01T08:57:49;2.88;;;1.00;;
44810;SDS011;30526;52.184;4.476;2022-07-01T09:00:15;4.82;;;1.10;;
44810;SDS011;30526;52.184;4.476;2022-07-01T09:02:52;2.83;;;0.90;;
44810;SDS011;30526;52.184;4.476;2022-07-01T09:05:18;5.37;;;1.20;;
44810;SDS011;30526;52.184;4.476;2022-07-01T09:07:44;3.05;;;0.80;;
44810;SDS011;30526;52.184;4.476;2022-07-01T09:10:12;5.30;;;0.98;;
44810;SDS011;30526;52.184;4.476;2022-07-01T09:12:39;2.17;;;1.00;;
44810;SDS011;30526;52.184;4.476;2022-07-01T09:15:18;4.68;;;1.38;;
44810;SDS011;30526;52.184;4.476;2022-07-01T09:17:44;7.68;;;1.27;;
44810;SDS011;30526;52.184;4.476;2022-07-01T09:20:30;5.97;;;0.82;;
44810;SDS011;30526;52.184;4.476;2022-07-01T09:23:06;6.30;;;1.10;;
44810;SDS011;30526;52.184;4.476;2022-07-01T09:28:11;4.13;;;0.82;;
44810;SDS011;30526;52.184;4.476;2022-07-01T09:30:41;5.53;;;1.05;;
44810;SDS011;30526;52.184;4.476;2022-07-01T09:33:12;3.88;;;0.80;;
44810;SDS011;30526;52.184;4.476;2022-07-01T09:35:39;3.30;;;0.90;;
44810;SDS011;30526;52.184;4.476;2022-07-01T09:38:05;6.20;;;1.05;;
44810;SDS011;30526;52.184;4.476;2022-07-01T09:43:36;5.25;;;1.00;;
44810;SDS011;30526;52.184;4.476;2022-07-01T09:46:07;1.17;;;0.40;;
44810;SDS011;30526;52.184;4.476;2022-07-01T09:51:03;0.90;;;0.40;;
44810;SDS011;30526;52.184;4.476;2022-07-01T09:53:29;3.42;;;0.75;;
44810;SDS011;30526;52.184;4.476;2022-07-01T09:55:55;4.13;;;0.93;;
44810;SDS011;30526;52.184;4.476;2022-07-01T09:58:21;6.32;;;1.15;;
44810;SDS011;30526;52.184;4.476;2022-07-01T10:00:47;4.80;;;1.08;;
44810;SDS011;30526;52.184;4.476;2022-07-01T10:03:14;4.22;;;0.80;;
44810;SDS011;30526;52.184;4.476;2022-07-01T10:13:39;1.48;;;0.68;;
44810;SDS011;30526;52.184;4.476;2022-07-01T10:16:07;1.75;;;0.93;;
44810;SDS011;30526;52.184;4.476;2022-07-01T10:18:33;3.80;;;1.00;;
44810;SDS011;30526;52.184;4.476;2022-07-01T10:21:00;3.22;;;1.00;;
44810;SDS011;30526;52.184;4.476;2022-07-01T10:23:28;8.75;;;1.20;;
44810;SDS011;30526;52.184;4.476;2022-07-01T10:26:01;7.55;;;1.02;;
44810;SDS011;30526;52.184;4.476;2022-07-01T10:31:07;3.53;;;0.70;;
44810;SDS011;30526;52.184;4.476;2022-07-01T10:36:12;4.22;;;0.98;;
44810;SDS011;30526;52.184;4.476;2022-07-01T10:41:24;5.00;;;1.00;;
44810;SDS011;30526;52.184;4.476;2022-07-01T10:43:51;4.45;;;1.13;;
44810;SDS011;30526;52.184;4.476;2022-07-01T10:51:48;3.88;;;1.10;;
44810;SDS011;30526;52.184;4.476;2022-07-01T10:57:18;5.78;;;1.30;;
44810;SDS011;30526;52.184;4.476;2022-07-01T11:02:29;6.47;;;1.30;;
44810;SDS011;30526;52.184;4.476;2022-07-01T11:04:59;10.10;;;1.27;;
44810;SDS011;30526;52.184;4.476;2022-07-01T11:07:27;4.55;;;1.23;;
44810;SDS011;30526;52.184;4.476;2022-07-01T11:09:53;9.50;;;1.30;;
44810;SDS011;30526;52.184;4.476;2022-07-01T11:12:22;7.85;;;1.58;;
44810;SDS011;30526;52.184;4.476;2022-07-01T11:14:49;3.78;;;1.30;;
44810;SDS011;30526;52.184;4.476;2022-07-01T11:17:15;4.90;;;1.08;;
44810;SDS011;30526;52.184;4.476;2022-07-01T11:19:42;3.30;;;1.02;;
44810;SDS011;30526;52.184;4.476;2022-07-01T11:22:17;6.32;;;1.67;;
44810;SDS011;30526;52.184;4.476;2022-07-01T11:24:42;5.70;;;1.38;;
44810;SDS011;30526;52.184;4.476;2022-07-01T11:27:09;5.97;;;1.57;;
44810;SDS011;30526;52.184;4.476;2022-07-01T11:29:35;8.35;;;1.45;;
44810;SDS011;30526;52.184;4.476;2022-07-01T11:32:01;5.05;;;0.98;;
44810;SDS011;30526;52.184;4.476;2022-07-01T11:34:28;6.30;;;1.10;;
44810;SDS011;30526;52.184;4.476;2022-07-01T11:36:54;3.00;;;1.60;;
44810;SDS011;30526;52.184;4.476;2022-07-01T11:39:39;5.05;;;1.25;;
44810;SDS011;30526;52.184;4.476;2022-07-01T11:42:08;5.53;;;0.68;;
44810;SDS011;30526;52.184;4.476;2022-07-01T11:47:01;5.30;;;1.02;;
44810;SDS011;30526;52.184;4.476;2022-07-01T11:49:27;4.40;;;0.70;;
44810;SDS011;30526;52.184;4.476;2022-07-01T11:51:54;5.03;;;0.95;;
44810;SDS011;30526;52.184;4.476;2022-07-01T11:54:20;5.07;;;0.88;;
44810;SDS011;30526;52.184;4.476;2022-07-01T11:56:47;3.30;;;0.90;;
44810;SDS011;30526;52.184;4.476;2022-07-01T11:59:13;5.75;;;0.77;;
44810;SDS011;30526;52.184;4.476;2022-07-01T12:01:39;5.45;;;1.10;;
44810;SDS011;30526;52.184;4.476;2022-07-01T12:04:06;9.07;;;1.05;;
44810;SDS011;30526;52.184;4.476;2022-07-01T12:08:58;4.80;;;1.10;;
44810;SDS011;30526;52.184;4.476;2022-07-01T12:11:26;6.80;;;0.98;;
44810;SDS011;30526;52.184;4.476;2022-07-01T12:13:52;3.92;;;1.25;;
44810;SDS011;30526;52.184;4.476;2022-07-01T12:16:18;5.50;;;1.10;;
44810;SDS011;30526;52.184;4.476;2022-07-01T12:18:55;5.35;;;1.10;;
44810;SDS011;30526;52.184;4.476;2022-07-01T12:21:23;4.75;;;1.08;;
44810;SDS011;30526;52.184;4.476;2022-07-01T12:29:30;4.75;;;0.80;;
44810;SDS011;30526;52.184;4.476;2022-07-01T12:32:00;3.85;;;0.93;;
44810;SDS011;30526;52.184;4.476;2022-07-01T12:34:41;1.55;;;0.70;;
44810;SDS011;30526;52.184;4.476;2022-07-01T12:37:07;6.50;;;0.93;;
44810;SDS011;30526;52.184;4.476;2022-07-01T12:39:41;5.85;;;1.17;;
44810;SDS011;30526;52.184;4.476;2022-07-01T12:42:07;4.78;;;1.30;;
44810;SDS011;30526;52.184;4.476;2022-07-01T12:44:33;6.88;;;1.27;;
44810;SDS011;30526;52.184;4.476;2022-07-01T12:47:09;5.03;;;0.75;;
44810;SDS011;30526;52.184;4.476;2022-07-01T12:49:41;5.03;;;1.00;;
44810;SDS011;30526;52.184;4.476;2022-07-01T12:52:22;4.18;;;0.77;;
44810;SDS011;30526;52.184;4.476;2022-07-01T12:54:48;4.43;;;0.98;;
44810;SDS011;30526;52.184;4.476;2022-07-01T12:57:14;4.72;;;0.82;;
44810;SDS011;30526;52.184;4.476;2022-07-01T12:59:40;3.05;;;0.90;;
44810;SDS011;30526;52.184;4.476;2022-07-01T13:02:06;7.55;;;0.80;;
44810;SDS011;30526;52.184;4.476;2022-07-01T13:04:32;8.05;;;0.77;;
44810;SDS011;30526;52.184;4.476;2022-07-01T13:06:58;1.88;;;0.70;;
44810;SDS011;30526;52.184;4.476;2022-07-01T13:09:24;3.75;;;0.98;;
44810;SDS011;30526;52.184;4.476;2022-07-01T13:11:50;5.85;;;0.80;;
44810;SDS011;30526;52.184;4.476;2022-07-01T13:14:16;1.60;;;0.57;;
44810;SDS011;30526;52.184;4.476;2022-07-01T13:16:42;2.90;;;0.80;;
44810;SDS011;30526;52.184;4.476;2022-07-01T13:19:08;1.95;;;0.60;;
44810;SDS011;30526;52.184;4.476;2022-07-01T13:21:34;3.53;;;0.80;;
44810;SDS011;30526;52.184;4.476;2022-07-01T13:24:00;3.00;;;0.75;;
44810;SDS011;30526;52.184;4.476;2022-07-01T13:26:26;2.83;;;1.00;;
44810;SDS011;30526;52.184;4.476;2022-07-01T13:28:52;2.60;;;0.82;;
44810;SDS011;30526;52.184;4.476;2022-07-01T13:31:18;4.45;;;1.00;;
44810;SDS011;30526;52.184;4.476;2022-07-01T13:33:44;5.03;;;0.70;;
44810;SDS011;30526;52.184;4.476;2022-07-01T13:36:10;3.03;;;0.73;;
44810;SDS011;30526;52.184;4.476;2022-07-01T13:38:36;8.27;;;1.10;;
44810;SDS011;30526;52.184;4.476;2022-07-01T13:41:02;4.03;;;0.68;;
44810;SDS011;30526;52.184;4.476;2022-07-01T13:43:28;3.85;;;1.23;;
44810;SDS011;30526;52.184;4.476;2022-07-01T13:45:54;6.32;;;1.00;;
44810;SDS011;30526;52.184;4.476;2022-07-01T13:48:20;3.25;;;0.70;;
44810;SDS011;30526;52.184;4.476;2022-07-01T13:50:46;4.40;;;0.93;;
44810;SDS011;30526;52.184;4.476;2022-07-01T13:53:12;8.32;;;0.88;;
44810;SDS011;30526;52.184;4.476;2022-07-01T13:55:38;3.10;;;0.70;;
44810;SDS011;30526;52.184;4.476;2022-07-01T13:58:04;4.50;;;0.90;;
44810;SDS011;30526;52.184;4.476;2022-07-01T14:00:30;2.95;;;1.38;;
44810;SDS011;30526;52.184;4.476;2022-07-01T14:02:56;2.08;;;0.50;;
44810;SDS011;30526;52.184;4.476;2022-07-01T14:05:22;4.85;;;0.80;;
44810;SDS011;30526;52.184;4.476;2022-07-01T14:07:48;3.80;;;0.75;;
44810;SDS011;30526;52.184;4.476;2022-07-01T14:10:15;4.93;;;0.70;;
44810;SDS011;30526;52.184;4.476;2022-07-01T14:12:41;5.80;;;0.90;;
44810;SDS011;30526;52.184;4.476;2022-07-01T14:15:07;4.80;;;0.93;;
44810;SDS011;30526;52.184;4.476;2022-07-01T14:17:33;3.30;;;0.75;;
44810;SDS011;30526;52.184;4.476;2022-07-01T14:19:59;1.40;;;0.60;;
44810;SDS011;30526;52.184;4.476;2022-07-01T14:22:25;3.03;;;0.60;;
44810;SDS011;30526;52.184;4.476;2022-07-01T14:24:51;1.77;;;0.65;;
44810;SDS011;30526;52.184;4.476;2022-07-01T14:27:17;5.10;;;0.90;;
44810;SDS011;30526;52.184;4.476;2022-07-01T14:29:44;3.08;;;0.68;;
44810;SDS011;30526;52.184;4.476;2022-07-01T14:32:10;4.85;;;0.90;;
44810;SDS011;30526;52.184;4.476;2022-07-01T14:34:36;4.00;;;0.90;;
44810;SDS011;30526;52.184;4.476;2022-07-01T14:37:02;3.67;;;0.82;;
44810;SDS011;30526;52.184;4.476;2022-07-01T14:39:28;5.97;;;1.23;;
44810;SDS011;30526;52.184;4.476;2022-07-01T14:41:54;4.90;;;0.95;;
44810;SDS011;30526;52.184;4.476;2022-07-01T14:44:21;3.45;;;1.13;;
44810;SDS011;30526;52.184;4.476;2022-07-01T14:46:47;2.00;;;0.47;;
44810;SDS011;30526;52.184;4.476;2022-07-01T14:49:13;2.55;;;0.60;;
44810;SDS011;30526;52.184;4.476;2022-07-01T14:51:40;3.20;;;0.70;;
44810;SDS011;30526;52.184;4.476;2022-07-01T14:54:06;2.58;;;0.75;;
44810;SDS011;30526;52.184;4.476;2022-07-01T14:56:32;1.20;;;0.60;;
44810;SDS011;30526;52.184;4.476;2022-07-01T14:58:58;2.35;;;0.50;;
44810;SDS011;30526;52.184;4.476;2022-07-01T15:01:24;2.05;;;0.70;;
44810;SDS011;30526;52.184;4.476;2022-07-01T15:03:50;4.82;;;0.80;;
44810;SDS011;30526;52.184;4.476;2022-07-01T15:06:16;4.35;;;0.70;;
44810;SDS011;30526;52.184;4.476;2022-07-01T15:08:42;2.55;;;1.02;;
44810;SDS011;30526;52.184;4.476;2022-07-01T15:11:08;6.30;;;1.17;;
44810;SDS011;30526;52.184;4.476;2022-07-01T15:13:35;4.82;;;0.93;;
44810;SDS011;30526;52.184;4.476;2022-07-01T15:16:02;4.78;;;0.80;;
44810;SDS011;30526;52.184;4.476;2022-07-01T15:18:28;5.07;;;1.00;;
44810;SDS011;30526;52.184;4.476;2022-07-01T15:20:56;2.00;;;0.77;;
44810;SDS011;30526;52.184;4.476;2022-07-01T15:23:23;5.15;;;1.20;;
44810;SDS011;30526;52.184;4.476;2022-07-01T15:25:48;2.50;;;1.00;;
44810;SDS011;30526;52.184;4.476;2022-07-01T15:28:14;4.20;;;0.90;;
44810;SDS011;30526;52.184;4.476;2022-07-01T15:30:40;3.17;;;1.23;;
44810;SDS011;30526;52.184;4.476;2022-07-01T15:33:06;4.70;;;1.13;;